sensor_id;sensor_type;location;lat;lon;timestamp;pressure;altitude;pressure_sealevel;temperature;humidity
8575;BME280;4325;42.520;27.448;2023-04-10T00:00:34;101299.34;;;6.69;100.00
8575;BME280;4325;42.520;27.448;2023-04-10T00:03:02;101300.00;;;6.64;100.00
8575;BME280;4325;42.520;27.448;2023-04-10T00:05:29;101297.66;;;6.56;100.00
8575;BME280;4325;42.520;27.448;2023-04-10T00:07:58;101301.72;;;6.47;100.00
8575;BME280;4325;42.520;27.448;2023-04-10T00:10:25;101303.84;;;6.45;100.00
8575;BME280;4325;42.520;27.448;2023-04-10T00:12:54;101295.56;;;6.40;100.00
8575;BME280;4325;42.520;27.448;2023-04-10T00:15:21;101299.34;;;6.39;100.00
8575;BME280;4325;42.520;27.448;2023-04-10T00:17:48;101296.03;;;6.37;100.00
8575;BME280;4325;42.520;27.448;2023-04-10T00:20:19;101294.75;;;6.40;100.00
8575;BME280;4325;42.520;27.448;2023-04-10T00:22:46;101283.38;;;6.43;100.00
8575;BME280;4325;42.520;27.448;2023-04-10T00:25:14;101283.50;;;6.36;100.00
8575;BME280;4325;42.520;27.448;2023-04-10T00:27:41;101276.28;;;6.30;100.00
8575;BME280;4325;42.520;27.448;2023-04-10T00:30:08;101274.00;;;6.27;100.00
8575;BME280;4325;42.520;27.448;2023-04-10T00:32:36;101275.06;;;6.26;100.00
8575;BME280;4325;42.520;27.448;2023-04-10T00:35:04;101274.00;;;6.27;100.00
8575;BME280;4325;42.520;27.448;2023-04-10T00:37:31;101269.47;;;6.21;100.00
8575;BME280;4325;42.520;27.448;2023-04-10T00:39:58;101268.28;;;6.17;100.00
8575;BME280;4325;42.520;27.448;2023-04-10T00:42:26;101266.84;;;6.15;100.00
8575;BME280;4325;42.520;27.448;2023-04-10T00:44:53;101269.44;;;6.10;100.00
8575;BME280;4325;42.520;27.448;2023-04-10T00:47:20;101263.59;;;6.06;100.00
8575;BME280;4325;42.520;27.448;2023-04-10T00:49:47;101255.34;;;6.01;100.00
8575;BME280;4325;42.520;27.448;2023-04-10T00:52:14;101249.75;;;5.96;100.00
8575;BME280;4325;42.520;27.448;2023-04-10T00:54:59;101251.41;;;5.97;100.00
8575;BME280;4325;42.520;27.448;2023-04-10T00:57:27;101247.63;;;5.98;100.00
8575;BME280;4325;42.520;27.448;2023-04-10T00:59:54;101245.50;;;6.00;100.00
8575;BME280;4325;42.520;27.448;2023-04-10T01:02:21;101246.56;;;5.99;100.00
8575;BME280;4325;42.520;27.448;2023-04-10T01:04:48;101248.72;;;6.09;100.00
8575;BME280;4325;42.520;27.448;2023-04-10T01:07:20;101247.44;;;6.11;100.00
8575;BME280;4325;42.520;27.448;2023-04-10T01:09:55;101245.34;;;6.13;100.00
8575;BME280;4325;42.520;27.448;2023-04-10T01:12:37;101238.25;;;6.12;100.00
8575;BME280;4325;42.520;27.448;2023-04-10T01:15:11;101243.22;;;6.15;100.00
8575;BME280;4325;42.520;27.448;2023-04-10T01:17:42;101240.66;;;6.20;100.00
8575;BME280;4325;42.520;27.448;2023-04-10T01:20:13;101236.84;;;6.21;100.00
8575;BME280;4325;42.520;27.448;2023-04-10T01:22:51;101229.22;;;6.30;100.00
8575;BME280;4325;42.520;27.448;2023-04-10T01:25:37;101228.72;;;6.33;100.00
8575;BME280;4325;42.520;27.448;2023-04-10T01:28:20;101234.09;;;6.51;100.00
8575;BME280;4325;42.520;27.448;2023-04-10T01:30:55;101231.28;;;6.57;100.00
8575;BME280;4325;42.520;27.448;2023-04-10T01:33:33;101223.25;;;6.62;100.00
8575;BME280;4325;42.520;27.448;2023-04-10T01:36:03;101228.47;;;6.64;100.00
8575;BME280;4325;42.520;27.448;2023-04-10T01:38:32;101219.00;;;6.67;100.00
8575;BME280;4325;42.520;27.448;2023-04-10T01:41:00;101219.00;;;6.67;100.00
8575;BME280;4325;42.520;27.448;2023-04-10T01:43:28;101223.03;;;6.76;100.00
8575;BME280;4325;42.520;27.448;2023-04-10T01:45:59;101214.75;;;6.82;100.00
8575;BME280;4325;42.520;27.448;2023-04-10T01:48:27;101211.69;;;6.90;100.00
8575;BME280;4325;42.520;27.448;2023-04-10T01:50:55;101213.81;;;7.00;100.00
8575;BME280;4325;42.520;27.448;2023-04-10T01:53:22;101224.59;;;7.06;100.00
8575;BME280;4325;42.520;27.448;2023-04-10T01:55:51;101225.09;;;7.15;100.00
8575;BME280;4325;42.520;27.448;2023-04-10T01:58:18;101214.31;;;7.20;100.00
8575;BME280;4325;42.520;27.448;2023-04-10T02:00:46;101214.88;;;7.22;100.00
8575;BME280;4325;42.520;27.448;2023-04-10T02:03:14;101220.47;;;7.27;100.00
8575;BME280;4325;42.520;27.448;2023-04-10T02:05:52;101219.63;;;7.26;100.00
8575;BME280;4325;42.520;27.448;2023-04-10T02:08:25;101211.09;;;7.23;100.00
8575;BME280;4325;42.520;27.448;2023-04-10T02:10:57;101215.22;;;7.25;100.00
8575;BME280;4325;42.520;27.448;2023-04-10T02:13:28;101216.53;;;7.23;100.00
8575;BME280;4325;42.520;27.448;2023-04-10T02:15:58;101208.34;;;7.23;100.00
8575;BME280;4325;42.520;27.448;2023-04-10T02:18:28;101201.28;;;7.22;100.00
8575;BME280;4325;42.520;27.448;2023-04-10T02:20:56;101203.75;;;7.23;100.00
8575;BME280;4325;42.520;27.448;2023-04-10T02:23:23;101206.72;;;7.22;100.00
8575;BME280;4325;42.520;27.448;2023-04-10T02:25:50;101205.53;;;7.18;100.00
8575;BME280;4325;42.520;27.448;2023-04-10T02:28:17;101198.91;;;7.14;100.00
8575;BME280;4325;42.520;27.448;2023-04-10T02:30:43;101203.28;;;7.03;100.00
8575;BME280;4325;42.520;27.448;2023-04-10T02:33:10;101204.59;;;7.01;100.00
8575;BME280;4325;42.520;27.448;2023-04-10T02:35:39;101200.94;;;6.95;100.00
8575;BME280;4325;42.520;27.448;2023-04-10T02:38:06;101199.72;;;6.91;100.00
8575;BME280;4325;42.520;27.448;2023-04-10T02:40:34;101204.84;;;6.88;100.00
8575;BME280;4325;42.520;27.448;2023-04-10T02:43:00;101202.44;;;6.80;100.00
8575;BME280;4325;42.520;27.448;2023-04-10T02:45:27;101205.63;;;6.77;100.00
8575;BME280;4325;42.520;27.448;2023-04-10T02:47:54;101197.13;;;6.73;100.00
8575;BME280;4325;42.520;27.448;2023-04-10T02:50:21;101185.53;;;6.66;100.00
8575;BME280;4325;42.520;27.448;2023-04-10T02:52:49;101194.03;;;6.70;100.00
8575;BME280;4325;42.520;27.448;2023-04-10T02:55:16;101179.72;;;6.62;100.00
8575;BME280;4325;42.520;27.448;2023-04-10T02:57:43;101181.38;;;6.63;100.00
8575;BME280;4325;42.520;27.448;2023-04-10T03:00:11;101184.09;;;6.63;100.00
8575;BME280;4325;42.520;27.448;2023-04-10T03:02:38;101180.91;;;6.67;100.00
8575;BME280;4325;42.520;27.448;2023-04-10T03:05:06;101178.78;;;6.69;100.00
8575;BME280;4325;42.520;27.448;2023-04-10T03:07:33;101181.63;;;6.74;100.00
8575;BME280;4325;42.520;27.448;2023-04-10T03:10:01;101188.25;;;6.78;100.00
8575;BME280;4325;42.520;27.448;2023-04-10T03:12:28;101191.69;;;6.85;100.00
8575;BME280;4325;42.520;27.448;2023-04-10T03:14:55;101188.97;;;6.85;100.00
8575;BME280;4325;42.520;27.448;2023-04-10T03:17:22;101206.72;;;6.99;100.00
8575;BME280;4325;42.520;27.448;2023-04-10T03:19:49;101204.69;;;7.06;100.00
8575;BME280;4325;42.520;27.448;2023-04-10T03:22:16;101202.72;;;7.13;100.00
8575;BME280;4325;42.520;27.448;2023-04-10T03:24:43;101203.16;;;7.21;100.00
8575;BME280;4325;42.520;27.448;2023-04-10T03:27:11;101199.97;;;7.24;100.00
8575;BME280;4325;42.520;27.448;2023-04-10T03:29:38;101192.75;;;7.30;100.00
8575;BME280;4325;42.520;27.448;2023-04-10T03:32:05;101201.22;;;7.45;100.00
8575;BME280;4325;42.520;27.448;2023-04-10T03:34:32;101193.16;;;7.50;100.00
8575;BME280;4325;42.520;27.448;2023-04-10T03:36:59;101202.88;;;7.58;100.00
8575;BME280;4325;42.520;27.448;2023-04-10T03:39:25;101190.75;;;7.65;100.00
8575;BME280;4325;42.520;27.448;2023-04-10T03:41:52;101197.59;;;7.79;100.00
8575;BME280;4325;42.520;27.448;2023-04-10T03:44:20;101186.09;;;7.77;100.00
8575;BME280;4325;42.520;27.448;2023-04-10T03:46:47;101194.13;;;7.84;100.00
8575;BME280;4325;42.520;27.448;2023-04-10T03:49:14;101188.78;;;7.89;100.00
8575;BME280;4325;42.520;27.448;2023-04-10T03:51:41;101189.88;;;7.88;100.00
8575;BME280;4325;42.520;27.448;2023-04-10T03:54:08;101187.72;;;7.90;100.00
8575;BME280;4325;42.520;27.448;2023-04-10T03:56:35;101188.31;;;7.92;100.00
8575;BME280;4325;42.520;27.448;2023-04-10T03:59:02;101186.41;;;7.92;100.00
8575;BME280;4325;42.520;27.448;2023-04-10T04:01:30;101189.13;;;7.92;100.00
8575;BME280;4325;42.520;27.448;2023-04-10T04:03:58;101186.72;;;7.96;100.00
8575;BME280;4325;42.520;27.448;2023-04-10T04:06:25;101186.25;;;7.99;100.00
8575;BME280;4325;42.520;27.448;2023-04-10T04:08:51;101184.94;;;8.02;100.00
8575;BME280;4325;42.520;27.448;2023-04-10T04:11:18;101184.47;;;8.05;100.00
8575;BME280;4325;42.520;27.448;2023-04-10T04:13:45;101187.50;;;8.08;100.00
8575;BME280;4325;42.520;27.448;2023-04-10T04:16:12;101185.13;;;8.12;100.00
8575;BME280;4325;42.520;27.448;2023-04-10T04:18:40;101178.38;;;8.14;100.00
8575;BME280;4325;42.520;27.448;2023-04-10T04:21:07;101177.53;;;8.14;100.00
8575;BME280;4325;42.520;27.448;2023-04-10T04:23:34;101187.97;;;8.17;100.00
8575;BME280;4325;42.520;27.448;2023-04-10T04:26:01;101180.94;;;8.21;100.00
8575;BME280;4325;42.520;27.448;2023-04-10T04:28:27;101177.97;;;8.22;100.00
8575;BME280;4325;42.520;27.448;2023-04-10T04:30:54;101180.56;;;8.29;100.00
8575;BME280;4325;42.520;27.448;2023-04-10T04:33:21;101180.66;;;8.34;100.00
8575;BME280;4325;42.520;27.448;2023-04-10T04:35:49;101189.03;;;8.44;100.00
8575;BME280;4325;42.520;27.448;2023-04-10T04:38:16;101193.56;;;8.55;100.00
8575;BME280;4325;42.520;27.448;2023-04-10T04:40:44;101193.75;;;8.65;100.00
8575;BME280;4325;42.520;27.448;2023-04-10T04:43:11;101193.09;;;8.75;100.00
8575;BME280;4325;42.520;27.448;2023-04-10T04:45:38;101194.66;;;8.87;100.00
8575;BME280;4325;42.520;27.448;2023-04-10T04:48:05;101191.00;;;8.98;100.00
8575;BME280;4325;42.520;27.448;2023-04-10T04:50:32;101187.66;;;9.13;100.00
8575;BME280;4325;42.520;27.448;2023-04-10T04:53:00;101197.25;;;9.15;100.00
8575;BME280;4325;42.520;27.448;2023-04-10T04:55:27;101193.63;;;9.26;100.00
8575;BME280;4325;42.520;27.448;2023-04-10T04:57:54;101196.22;;;9.38;100.00
8575;BME280;4325;42.520;27.448;2023-04-10T05:00:20;101201.34;;;9.51;100.00
8575;BME280;4325;42.520;27.448;2023-04-10T05:02:47;101197.38;;;9.64;100.00
8575;BME280;4325;42.520;27.448;2023-04-10T05:05:14;101208.44;;;9.74;100.00
8575;BME280;4325;42.520;27.448;2023-04-10T05:07:41;101202.41;;;9.72;100.00
8575;BME280;4325;42.520;27.448;2023-04-10T05:10:09;101206.34;;;9.81;100.00
8575;BME280;4325;42.520;27.448;2023-04-10T05:12:36;101202.16;;;9.95;100.00
8575;BME280;4325;42.520;27.448;2023-04-10T05:15:06;101201.22;;;10.11;100.00
8575;BME280;4325;42.520;27.448;2023-04-10T05:17:33;101195.06;;;10.21;98.84
8575;BME280;4325;42.520;27.448;2023-04-10T05:20:01;101209.31;;;10.23;96.74
8575;BME280;4325;42.520;27.448;2023-04-10T05:22:28;101207.75;;;10.27;97.17
8575;BME280;4325;42.520;27.448;2023-04-10T05:24:55;101210.00;;;10.35;99.25
8575;BME280;4325;42.520;27.448;2023-04-10T05:27:25;101211.19;;;10.44;95.70
8575;BME280;4325;42.520;27.448;2023-04-10T05:29:51;101209.41;;;10.59;98.60
8575;BME280;4325;42.520;27.448;2023-04-10T05:32:18;101212.06;;;10.81;98.90
8575;BME280;4325;42.520;27.448;2023-04-10T05:34:45;101211.34;;;10.96;98.32
8575;BME280;4325;42.520;27.448;2023-04-10T05:37:12;101212.56;;;11.15;97.00
8575;BME280;4325;42.520;27.448;2023-04-10T05:39:39;101206.72;;;11.38;97.38
8575;BME280;4325;42.520;27.448;2023-04-10T05:42:06;101218.84;;;11.52;90.83
8575;BME280;4325;42.520;27.448;2023-04-10T05:44:34;101216.28;;;11.77;94.20
8575;BME280;4325;42.520;27.448;2023-04-10T05:47:01;101215.78;;;12.01;89.34
8575;BME280;4325;42.520;27.448;2023-04-10T05:49:27;101206.50;;;12.22;89.24
8575;BME280;4325;42.520;27.448;2023-04-10T05:51:54;101210.41;;;12.51;89.14
8575;BME280;4325;42.520;27.448;2023-04-10T05:54:21;101221.44;;;12.81;88.62
8575;BME280;4325;42.520;27.448;2023-04-10T05:56:48;101216.53;;;13.08;86.80
8575;BME280;4325;42.520;27.448;2023-04-10T05:59:15;101212.63;;;13.30;85.13
8575;BME280;4325;42.520;27.448;2023-04-10T06:01:43;101207.63;;;13.47;83.59
8575;BME280;4325;42.520;27.448;2023-04-10T06:04:10;101215.28;;;13.65;82.87
8575;BME280;4325;42.520;27.448;2023-04-10T06:06:37;101210.00;;;13.78;82.84
8575;BME280;4325;42.520;27.448;2023-04-10T06:09:05;101207.19;;;13.94;82.52
8575;BME280;4325;42.520;27.448;2023-04-10T06:11:31;101210.44;;;14.06;81.81
8575;BME280;4325;42.520;27.448;2023-04-10T06:13:59;101218.31;;;14.22;81.65
8575;BME280;4325;42.520;27.448;2023-04-10T06:16:26;101214.41;;;14.38;82.05
8575;BME280;4325;42.520;27.448;2023-04-10T06:18:54;101235.59;;;14.43;78.22
8575;BME280;4325;42.520;27.448;2023-04-10T06:21:21;101236.44;;;14.38;78.63
8575;BME280;4325;42.520;27.448;2023-04-10T06:23:48;101233.16;;;14.31;75.12
8575;BME280;4325;42.520;27.448;2023-04-10T06:26:15;101238.69;;;14.26;77.23
8575;BME280;4325;42.520;27.448;2023-04-10T06:28:42;101234.28;;;14.25;77.68
8575;BME280;4325;42.520;27.448;2023-04-10T06:31:09;101229.38;;;14.17;74.98
8575;BME280;4325;42.520;27.448;2023-04-10T06:33:36;101227.75;;;14.16;74.51
8575;BME280;4325;42.520;27.448;2023-04-10T06:36:05;101224.41;;;14.14;75.02
8575;BME280;4325;42.520;27.448;2023-04-10T06:38:32;101212.88;;;14.12;72.38
8575;BME280;4325;42.520;27.448;2023-04-10T06:41:02;101215.63;;;14.12;71.13
8575;BME280;4325;42.520;27.448;2023-04-10T06:43:29;101218.13;;;14.09;71.20
8575;BME280;4325;42.520;27.448;2023-04-10T06:45:56;101213.75;;;14.03;71.99
8575;BME280;4325;42.520;27.448;2023-04-10T06:48:23;101216.16;;;14.14;73.36
8575;BME280;4325;42.520;27.448;2023-04-10T06:50:50;101216.66;;;14.21;71.28
8575;BME280;4325;42.520;27.448;2023-04-10T06:53:18;101211.97;;;14.32;71.12
8575;BME280;4325;42.520;27.448;2023-04-10T06:55:45;101212.22;;;14.35;69.10
8575;BME280;4325;42.520;27.448;2023-04-10T06:58:12;101209.97;;;14.42;70.00
8575;BME280;4325;42.520;27.448;2023-04-10T07:00:39;101210.22;;;14.46;68.75
8575;BME280;4325;42.520;27.448;2023-04-10T07:03:05;101215.94;;;14.60;69.97
8575;BME280;4325;42.520;27.448;2023-04-10T07:05:32;101214.22;;;14.64;67.68
8575;BME280;4325;42.520;27.448;2023-04-10T07:07:59;101217.31;;;14.57;65.69
8575;BME280;4325;42.520;27.448;2023-04-10T07:10:28;101218.41;;;14.56;65.41
8575;BME280;4325;42.520;27.448;2023-04-10T07:12:54;101205.47;;;14.57;65.95
8575;BME280;4325;42.520;27.448;2023-04-10T07:15:23;101206.56;;;14.55;63.43
8575;BME280;4325;42.520;27.448;2023-04-10T07:17:50;101200.53;;;14.53;63.55
8575;BME280;4325;42.520;27.448;2023-04-10T07:20:17;101208.75;;;14.59;63.19
8575;BME280;4325;42.520;27.448;2023-04-10T07:22:43;101201.50;;;14.68;62.59
8575;BME280;4325;42.520;27.448;2023-04-10T07:25:11;101205.31;;;14.77;61.82
8575;BME280;4325;42.520;27.448;2023-04-10T07:27:40;101203.59;;;14.86;61.54
8575;BME280;4325;42.520;27.448;2023-04-10T07:30:07;101207.84;;;15.02;59.75
8575;BME280;4325;42.520;27.448;2023-04-10T07:32:34;101207.75;;;15.12;58.75
8575;BME280;4325;42.520;27.448;2023-04-10T07:35:04;101199.84;;;15.29;58.66
8575;BME280;4325;42.520;27.448;2023-04-10T07:37:31;101195.88;;;15.45;57.53
8575;BME280;4325;42.520;27.448;2023-04-10T07:39:58;101199.50;;;15.64;56.75
8575;BME280;4325;42.520;27.448;2023-04-10T07:42:26;101203.19;;;15.78;56.38
8575;BME280;4325;42.520;27.448;2023-04-10T07:44:54;101201.72;;;15.86;54.79
8575;BME280;4325;42.520;27.448;2023-04-10T07:47:21;101202.00;;;15.84;54.57
8575;BME280;4325;42.520;27.448;2023-04-10T07:49:48;101199.84;;;15.81;54.30
8575;BME280;4325;42.520;27.448;2023-04-10T07:52:15;101191.50;;;15.87;54.68
8575;BME280;4325;42.520;27.448;2023-04-10T07:54:42;101189.13;;;15.99;53.92
8575;BME280;4325;42.520;27.448;2023-04-10T07:57:09;101193.69;;;16.08;53.45
8575;BME280;4325;42.520;27.448;2023-04-10T07:59:36;101193.41;;;16.10;53.19
8575;BME280;4325;42.520;27.448;2023-04-10T08:02:04;101182.88;;;16.12;52.62
8575;BME280;4325;42.520;27.448;2023-04-10T08:04:32;101178.75;;;16.09;52.02
8575;BME280;4325;42.520;27.448;2023-04-10T08:06:59;101174.56;;;16.12;51.98
8575;BME280;4325;42.520;27.448;2023-04-10T08:09:26;101179.19;;;16.16;52.33
8575;BME280;4325;42.520;27.448;2023-04-10T08:11:53;101185.78;;;16.20;51.82
8575;BME280;4325;42.520;27.448;2023-04-10T08:14:22;101187.66;;;16.25;51.98
8575;BME280;4325;42.520;27.448;2023-04-10T08:16:49;101182.97;;;16.25;51.54
8575;BME280;4325;42.520;27.448;2023-04-10T08:19:17;101186.91;;;16.19;51.09
8575;BME280;4325;42.520;27.448;2023-04-10T08:21:44;101179.59;;;16.10;51.68
8575;BME280;4325;42.520;27.448;2023-04-10T08:24:10;101185.38;;;15.90;50.40
8575;BME280;4325;42.520;27.448;2023-04-10T08:26:37;101181.69;;;15.75;51.28
8575;BME280;4325;42.520;27.448;2023-04-10T08:29:04;101175.97;;;15.72;51.09
8575;BME280;4325;42.520;27.448;2023-04-10T08:31:31;101191.16;;;15.69;51.28
8575;BME280;4325;42.520;27.448;2023-04-10T08:33:58;101177.69;;;15.63;51.64
8575;BME280;4325;42.520;27.448;2023-04-10T08:36:27;101185.75;;;15.59;51.58
8575;BME280;4325;42.520;27.448;2023-04-10T08:38:53;101175.63;;;15.55;51.65
8575;BME280;4325;42.520;27.448;2023-04-10T08:41:20;101169.41;;;15.39;52.15
8575;BME280;4325;42.520;27.448;2023-04-10T08:43:47;101168.63;;;15.34;52.46
8575;BME280;4325;42.520;27.448;2023-04-10T08:46:15;101177.38;;;15.41;52.52
8575;BME280;4325;42.520;27.448;2023-04-10T08:48:45;101172.69;;;15.41;52.05
8575;BME280;4325;42.520;27.448;2023-04-10T08:51:17;101170.44;;;15.48;52.43
8575;BME280;4325;42.520;27.448;2023-04-10T08:53:50;101170.31;;;15.58;52.31
8575;BME280;4325;42.520;27.448;2023-04-10T08:56:17;101163.06;;;15.62;51.78
8575;BME280;4325;42.520;27.448;2023-04-10T08:58:44;101153.22;;;15.56;51.92
8575;BME280;4325;42.520;27.448;2023-04-10T09:01:11;101147.75;;;15.51;51.57
8575;BME280;4325;42.520;27.448;2023-04-10T09:03:38;101146.75;;;15.42;51.71
8575;BME280;4325;42.520;27.448;2023-04-10T09:06:05;101142.75;;;15.30;51.96
8575;BME280;4325;42.520;27.448;2023-04-10T09:08:33;101140.28;;;15.28;51.98
8575;BME280;4325;42.520;27.448;2023-04-10T09:11:01;101148.00;;;15.26;51.64
8575;BME280;4325;42.520;27.448;2023-04-10T09:13:35;101148.00;;;15.26;51.64
8575;BME280;4325;42.520;27.448;2023-04-10T09:16:03;101145.31;;;15.21;51.98
8575;BME280;4325;42.520;27.448;2023-04-10T09:18:43;101143.22;;;15.13;51.94
8575;BME280;4325;42.520;27.448;2023-04-10T09:21:12;101152.06;;;15.10;51.66
8575;BME280;4325;42.520;27.448;2023-04-10T09:23:40;101132.44;;;15.11;52.04
8575;BME280;4325;42.520;27.448;2023-04-10T09:26:26;101143.22;;;15.13;52.16
8575;BME280;4325;42.520;27.448;2023-04-10T09:28:57;101120.56;;;15.16;52.43
8575;BME280;4325;42.520;27.448;2023-04-10T09:31:32;101127.59;;;15.27;51.86
8575;BME280;4325;42.520;27.448;2023-04-10T09:34:12;101134.13;;;15.36;50.99
8575;BME280;4325;42.520;27.448;2023-04-10T09:36:41;101132.94;;;15.47;50.79
8575;BME280;4325;42.520;27.448;2023-04-10T09:39:09;101128.78;;;15.68;50.34
8575;BME280;4325;42.520;27.448;2023-04-10T09:41:48;101124.47;;;16.00;49.92
8575;BME280;4325;42.520;27.448;2023-04-10T09:44:17;101125.53;;;16.22;49.22
8575;BME280;4325;42.520;27.448;2023-04-10T09:46:44;101123.25;;;16.43;48.11
8575;BME280;4325;42.520;27.448;2023-04-10T09:49:11;101125.72;;;16.63;47.72
8575;BME280;4325;42.520;27.448;2023-04-10T09:51:38;101115.81;;;16.62;47.48
8575;BME280;4325;42.520;27.448;2023-04-10T09:54:05;101120.50;;;16.62;47.50
8575;BME280;4325;42.520;27.448;2023-04-10T09:56:35;101120.19;;;16.63;47.69
8575;BME280;4325;42.520;27.448;2023-04-10T09:59:06;101117.94;;;16.65;47.63
8575;BME280;4325;42.520;27.448;2023-04-10T10:01:36;101113.75;;;16.68;47.50
8575;BME280;4325;42.520;27.448;2023-04-10T10:04:06;101112.75;;;16.77;47.72
8575;BME280;4325;42.520;27.448;2023-04-10T10:06:33;101110.41;;;16.84;47.81
8575;BME280;4325;42.520;27.448;2023-04-10T10:09:02;101114.81;;;16.85;47.81
8575;BME280;4325;42.520;27.448;2023-04-10T10:11:31;101104.34;;;16.82;47.96
8575;BME280;4325;42.520;27.448;2023-04-10T10:14:17;101104.97;;;16.79;48.00
8575;BME280;4325;42.520;27.448;2023-04-10T10:16:48;101111.31;;;16.80;48.21
8575;BME280;4325;42.520;27.448;2023-04-10T10:19:17;101105.78;;;16.80;48.64
8575;BME280;4325;42.520;27.448;2023-04-10T10:21:46;101109.47;;;16.75;48.16
8575;BME280;4325;42.520;27.448;2023-04-10T10:24:14;101111.72;;;16.73;47.64
8575;BME280;4325;42.520;27.448;2023-04-10T10:26:43;101105.03;;;16.61;47.74
8575;BME280;4325;42.520;27.448;2023-04-10T10:29:14;101094.09;;;16.50;48.52
8575;BME280;4325;42.520;27.448;2023-04-10T10:31:44;101088.53;;;16.37;48.54
8575;BME280;4325;42.520;27.448;2023-04-10T10:34:14;101089.47;;;16.32;49.10
8575;BME280;4325;42.520;27.448;2023-04-10T10:36:41;101074.50;;;16.33;49.25
8575;BME280;4325;42.520;27.448;2023-04-10T10:39:23;101088.47;;;16.42;48.83
8575;BME280;4325;42.520;27.448;2023-04-10T10:41:58;101081.97;;;16.52;49.18
8575;BME280;4325;42.520;27.448;2023-04-10T10:44:34;101074.09;;;16.59;48.90
8575;BME280;4325;42.520;27.448;2023-04-10T10:47:08;101065.41;;;16.65;49.05
8575;BME280;4325;42.520;27.448;2023-04-10T10:49:55;101071.06;;;16.74;48.61
8575;BME280;4325;42.520;27.448;2023-04-10T10:52:44;101062.88;;;16.82;48.65
8575;BME280;4325;42.520;27.448;2023-04-10T10:55:32;101069.47;;;16.86;47.94
8575;BME280;4325;42.520;27.448;2023-04-10T10:58:04;101062.38;;;16.80;47.76
8575;BME280;4325;42.520;27.448;2023-04-10T11:01:05;101065.41;;;16.65;47.55
8575;BME280;4325;42.520;27.448;2023-04-10T11:03:36;101070.06;;;16.51;47.89
8575;BME280;4325;42.520;27.448;2023-04-10T11:06:06;101063.69;;;16.37;48.46
8575;BME280;4325;42.520;27.448;2023-04-10T11:08:40;101062.66;;;16.33;48.24
8575;BME280;4325;42.520;27.448;2023-04-10T11:11:14;101061.31;;;16.30;48.04
8575;BME280;4325;42.520;27.448;2023-04-10T11:16:42;101068.34;;;16.23;47.90
8575;BME280;4325;42.520;27.448;2023-04-10T11:19:10;101062.38;;;16.16;48.02
8575;BME280;4325;42.520;27.448;2023-04-10T11:22:02;101062.72;;;16.09;48.61
8575;BME280;4325;42.520;27.448;2023-04-10T11:24:50;101053.50;;;16.00;48.48
8575;BME280;4325;42.520;27.448;2023-04-10T11:27:45;101050.56;;;15.92;48.57
8575;BME280;4325;42.520;27.448;2023-04-10T11:30:30;101052.38;;;15.82;48.95
8575;BME280;4325;42.520;27.448;2023-04-10T11:32:58;101054.63;;;15.80;49.20
8575;BME280;4325;42.520;27.448;2023-04-10T11:35:26;101050.31;;;15.74;49.36
8575;BME280;4325;42.520;27.448;2023-04-10T11:38:08;101051.41;;;15.73;49.88
8575;BME280;4325;42.520;27.448;2023-04-10T11:40:35;101057.75;;;15.74;49.81
8575;BME280;4325;42.520;27.448;2023-04-10T11:43:18;101054.31;;;15.82;49.83
8575;BME280;4325;42.520;27.448;2023-04-10T11:45:45;101058.13;;;15.86;50.21
8575;BME280;4325;42.520;27.448;2023-04-10T11:48:13;101053.66;;;15.90;49.99
8575;BME280;4325;42.520;27.448;2023-04-10T11:50:42;101057.16;;;15.96;50.25
8575;BME280;4325;42.520;27.448;2023-04-10T11:53:19;101047.75;;;15.97;50.47
8575;BME280;4325;42.520;27.448;2023-04-10T11:55:47;101046.19;;;15.91;51.03
8575;BME280;4325;42.520;27.448;2023-04-10T11:58:21;101040.16;;;15.89;51.58
8575;BME280;4325;42.520;27.448;2023-04-10T12:00:58;101039.09;;;15.84;52.02
8575;BME280;4325;42.520;27.448;2023-04-10T12:03:36;101035.81;;;15.82;52.78
8575;BME280;4325;42.520;27.448;2023-04-10T12:06:07;101031.56;;;15.71;53.81
8575;BME280;4325;42.520;27.448;2023-04-10T12:08:36;101030.59;;;15.62;54.49
8575;BME280;4325;42.520;27.448;2023-04-10T12:11:03;101016.41;;;15.50;55.52
8575;BME280;4325;42.520;27.448;2023-04-10T12:13:30;101025.81;;;15.49;56.79
8575;BME280;4325;42.520;27.448;2023-04-10T12:15:58;101019.25;;;15.45;57.96
8575;BME280;4325;42.520;27.448;2023-04-10T12:18:26;101022.13;;;15.35;59.71
8575;BME280;4325;42.520;27.448;2023-04-10T12:20:54;101013.66;;;15.27;61.78
8575;BME280;4325;42.520;27.448;2023-04-10T12:23:24;101002.50;;;15.18;64.91
8575;BME280;4325;42.520;27.448;2023-04-10T12:25:52;101004.72;;;15.16;66.74
8575;BME280;4325;42.520;27.448;2023-04-10T12:28:20;100999.56;;;15.09;69.39
8575;BME280;4325;42.520;27.448;2023-04-10T12:30:48;101002.72;;;14.98;71.00
8575;BME280;4325;42.520;27.448;2023-04-10T12:33:21;100992.34;;;14.90;72.37
8575;BME280;4325;42.520;27.448;2023-04-10T12:35:48;100990.53;;;14.80;73.04
8575;BME280;4325;42.520;27.448;2023-04-10T12:38:35;100993.13;;;14.72;74.20
8575;BME280;4325;42.520;27.448;2023-04-10T12:41:02;100997.09;;;14.61;75.32
8575;BME280;4325;42.520;27.448;2023-04-10T12:43:30;100994.38;;;14.55;77.87
8575;BME280;4325;42.520;27.448;2023-04-10T12:45:58;100998.91;;;14.46;79.82
8575;BME280;4325;42.520;27.448;2023-04-10T12:48:25;100985.22;;;14.36;81.41
8575;BME280;4325;42.520;27.448;2023-04-10T12:50:52;100983.09;;;14.28;83.30
8575;BME280;4325;42.520;27.448;2023-04-10T12:53:19;100978.16;;;14.25;86.25
8575;BME280;4325;42.520;27.448;2023-04-10T12:55:58;100981.53;;;14.17;86.93
8575;BME280;4325;42.520;27.448;2023-04-10T12:58:25;100978.81;;;14.12;87.89
8575;BME280;4325;42.520;27.448;2023-04-10T13:00:53;100978.31;;;14.05;89.19
8575;BME280;4325;42.520;27.448;2023-04-10T13:03:21;100976.44;;;14.01;90.15
8575;BME280;4325;42.520;27.448;2023-04-10T13:05:47;100974.56;;;13.96;92.22
8575;BME280;4325;42.520;27.448;2023-04-10T13:08:14;100969.59;;;13.98;94.34
8575;BME280;4325;42.520;27.448;2023-04-10T13:10:41;100975.13;;;13.93;95.20
8575;BME280;4325;42.520;27.448;2023-04-10T13:13:10;100972.16;;;13.89;96.25